TimeEDT,TemperatureF,Dew PointF,Humidity,Sea Level PressureIn,VisibilityMPH,Wind Direction,Wind SpeedMPH,Gust SpeedMPH,PrecipitationIn,Events,Conditions,WindDirDegrees,DateUTC
1:54 AM,46.9,41.0,80,30.32,10.0,SSE,4.6,-,N/A,,Clear,150,2012-10-14 05:54:00
2:54 AM,48.9,44.1,83,30.30,10.0,South,3.5,-,N/A,,Clear,180,2012-10-14 06:54:00
3:54 AM,48.9,43.0,80,30.28,10.0,South,3.5,-,N/A,,Clear,170,2012-10-14 07:54:00
4:54 AM,50.0,45.0,83,30.27,10.0,Calm,Calm,-,N/A,,Clear,0,2012-10-14 08:54:00
5:54 AM,51.1,46.9,86,30.27,10.0,SSW,4.6,-,N/A,,Clear,200,2012-10-14 09:54:00
6:54 AM,46.0,43.0,89,30.28,10.0,Calm,Calm,-,N/A,,Clear,0,2012-10-14 10:54:00
7:54 AM,55.0,51.1,86,30.28,10.0,SSW,6.9,-,N/A,,Clear,210,2012-10-14 11:54:00
8:54 AM,61.0,55.0,81,30.28,10.0,SSW,5.8,-,N/A,,Clear,200,2012-10-14 12:54:00
9:54 AM,66.0,53.1,63,30.28,10.0,SSW,9.2,-,N/A,,Clear,200,2012-10-14 13:54:00
10:54 AM,70.0,51.1,51,30.27,10.0,SW,11.5,-,N/A,,Clear,230,2012-10-14 14:54:00
11:54 AM,73.0,52.0,48,30.25,10.0,SSW,16.1,21.9,N/A,,Clear,210,2012-10-14 15:54:00
12:54 PM,75.0,54.0,48,30.21,10.0,WSW,10.4,19.6,N/A,,Clear,240,2012-10-14 16:54:00
1:54 PM,75.9,54.0,46,30.17,10.0,SSW,16.1,23.0,N/A,,Partly Cloudy,210,2012-10-14 17:54:00
2:54 PM,75.9,54.0,46,30.15,10.0,SSW,20.7,26.5,N/A,,Clear,210,2012-10-14 18:54:00
3:54 PM,75.0,54.0,48,30.12,10.0,SSW,19.6,25.3,N/A,,Clear,200,2012-10-14 19:54:00
4:54 PM,73.9,54.0,50,30.10,10.0,SSW,17.3,-,N/A,,Clear,210,2012-10-14 20:54:00
5:54 PM,71.1,55.9,59,30.09,10.0,South,9.2,-,N/A,,Clear,190,2012-10-14 21:54:00
6:54 PM,66.0,57.0,73,30.09,10.0,South,5.8,-,N/A,,Clear,170,2012-10-14 22:54:00
7:54 PM,64.9,57.0,75,30.08,10.0,South,8.1,-,N/A,,Clear,180,2012-10-14 23:54:00
8:54 PM,64.9,57.9,78,30.07,10.0,South,8.1,-,N/A,,Clear,170,2012-10-15 00:54:00
9:54 PM,64.9,57.9,78,30.06,10.0,South,6.9,-,N/A,,Clear,170,2012-10-15 01:54:00
10:54 PM,64.9,57.9,78,30.04,10.0,SSE,8.1,-,N/A,,Clear,160,2012-10-15 02:54:00
11:54 PM,64.9,59.0,81,30.01,10.0,SSE,8.1,-,N/A,,Clear,160,2012-10-15 03:54:00